Time;durP1;ratioP1;P1;durP2;ratioP2;P2;SDS_P1;SDS_P2;PMS_P1;PMS_P2;Temp;Humidity;BMP_temperature;BMP_pressure;BME280_temperature;BME280_humidity;BME280_pressure;Samples;Min_cycle;Max_cycle;Signal;HPM_P1;HPM_P2
2022/09/06 00:00:09;;;;;;;;;;;;;;;;;;5078790;28;19924;-24
2022/09/06 00:02:36;;;;;;;;;;;;;;;;;;5078028;28;20224;-24
2022/09/06 00:05:03;;;;;;;;;;;;;;;;;;5079163;28;19909;-24
2022/09/06 00:07:30;;;;;;;;;;;;;;;;;;5078761;28;19912;-24
2022/09/06 00:09:57;;;;;;;;;;;;;;;;;;5078359;28;19971;-24
2022/09/06 00:12:24;;;;;;;;;;;;;;;;;;5077773;28;19912;-23
2022/09/06 00:14:51;;;;;;;;;;;;;;;;;;5078518;28;19940;-23
2022/09/06 00:17:17;;;;;;;;;;;;;;;;;;5077720;28;20297;-23
2022/09/06 00:19:44;;;;;;;;;;;;;;;;;;5078007;28;19915;-23
2022/09/06 00:22:11;;;;;;;;;;;;;;;;;;5078281;28;19986;-23
2022/09/06 00:24:38;;;;;;;;;;;;;;;;;;5077172;28;20328;-23
2022/09/06 00:27:06;;;;;;;;;;;;;;;;;;5077947;28;19912;-23
2022/09/06 00:29:33;;;;;;;;;;;;;;;;;;5078584;28;19995;-23
2022/09/06 00:32:00;;;;;;;;;;;;;;;;;;5078354;28;19924;-23
2022/09/06 00:34:27;;;;;;;;;;;;;;;;;;5078454;28;20051;-23
2022/09/06 00:36:54;;;;;;;;;;;;;;;;;;5077579;28;19917;-24
2022/09/06 00:39:21;;;;;;;;;;;;;;;;;;5076877;28;19919;-24
2022/09/06 00:41:49;;;;;;;;;;;;;;;;;;5076815;28;19917;-24
2022/09/06 00:44:16;;;;;;;;;;;;;;;;;;5077869;28;19977;-24
2022/09/06 00:46:44;;;;;;;;;;;;;;;;;;5077485;28;19975;-24
2022/09/06 00:49:12;;;;;;;;;;;;;;;;;;5077393;28;20232;-24
2022/09/06 00:51:39;;;;;;;;;;;;;;;;;;5077819;28;20400;-24
2022/09/06 00:54:06;;;;;;;;;;;;;;;;;;5079256;28;19919;-24
2022/09/06 00:56:34;;;;;;;;;;;;;;;;;;5077637;28;19916;-24
2022/09/06 00:59:03;;;;;;;;;;;;;;;;;;5076866;28;19912;-24
2022/09/06 01:01:30;;;;;;;;;;;;;;;;;;5077885;28;19973;-24
2022/09/06 01:03:58;;;;;;;;;;;;;;;;;;5077983;28;20267;-24
2022/09/06 01:06:26;;;;;;;;;;;;;;;;;;5077983;28;19913;-23
2022/09/06 01:08:53;;;;;;;;;;;;;;;;;;5078218;28;20233;-24
2022/09/06 01:11:20;;;;;;;;;;;;;;;;;;5077623;28;19913;-24
2022/09/06 01:13:47;;;;;;;;;;;;;;;;;;5076604;28;19912;-24
2022/09/06 01:16:14;;;;;;;;;;;;;;;;;;5077436;28;20003;-24
2022/09/06 01:18:41;;;;;;;;;;;;;;;;;;5077418;28;19908;-23
2022/09/06 01:21:13;;;;;;;;;;;;;;;;;;5076672;28;19912;-23
2022/09/06 01:23:40;;;;;;;;;;;;;;;;;;5077344;28;19947;-23
2022/09/06 01:26:07;;;;;;;;;;;;;;;;;;5077793;28;19974;-23
2022/09/06 01:28:33;;;;;;;;;;;;;;;;;;5077537;28;19908;-23
2022/09/06 01:31:00;;;;;;;;;;;;;;;;;;5076640;28;19974;-23
2022/09/06 01:33:28;;;;;;;;;;;;;;;;;;5076440;28;19923;-24
2022/09/06 01:35:56;;;;;;;;;;;;;;;;;;5076346;28;19980;-24
2022/09/06 01:38:23;;;;;;;;;;;;;;;;;;5078004;28;19912;-23
2022/09/06 01:40:52;;;;;;;;;;;;;;;;;;5077429;28;20303;-23
2022/09/06 01:43:19;;;;;;;;;;;;;;;;;;5077094;28;19962;-23
2022/09/06 01:45:46;;;;;;;;;;;;;;;;;;5077314;28;19969;-23
2022/09/06 01:48:13;;;;;;;;;;;;;;;;;;5076406;28;19912;-23
2022/09/06 01:50:40;;;;;;;;;;;;;;;;;;5077227;28;19909;-23
2022/09/06 01:53:08;;;;;;;;;;;;;;;;;;5077690;28;19913;-23
2022/09/06 01:55:37;;;;;;;;;;;;;;;;;;5077073;28;20263;-23
2022/09/06 01:58:04;;;;;;;;;;;;;;;;;;5079973;28;20240;-23
2022/09/06 02:00:32;;;;;;;;;;;;;;;;;;5080913;28;19908;-23
2022/09/06 02:02:58;;;;;;;;;;;;;;;;;;5080937;28;19927;-25
2022/09/06 02:05:25;;;;;;;;;;;;;;;;;;5081136;28;20282;-25
2022/09/06 02:07:53;;;;;;;;;;;;;;;;;;5080746;28;19908;-25
2022/09/06 02:10:20;;;;;;;;;;;;;;;;;;5080780;28;19912;-24
2022/09/06 02:12:48;;;;;;;;;;;;;;;;;;5081040;28;19944;-25
2022/09/06 02:15:15;;;;;;;;;;;;;;;;;;5079846;28;20311;-25
2022/09/06 02:17:42;;;;;;;;;;;;;;;;;;5080894;28;19981;-24
2022/09/06 02:20:09;;;;;;;;;;;;;;;;;;5080694;28;19909;-24
2022/09/06 02:22:37;;;;;;;;;;;;;;;;;;5080770;28;19930;-24
2022/09/06 02:25:04;;;;;;;;;;;;;;;;;;5080997;28;19913;-24
2022/09/06 02:27:32;;;;;;;;;;;;;;;;;;5080378;28;19920;-24
2022/09/06 02:30:01;;;;;;;;;;;;;;;;;;5080475;28;19974;-25
2022/09/06 02:32:28;;;;;;;;;;;;;;;;;;5080201;28;20347;-25
2022/09/06 02:34:56;;;;;;;;;;;;;;;;;;5080064;28;20228;-25
2022/09/06 02:37:24;;;;;;;;;;;;;;;;;;5080593;28;19927;-25
2022/09/06 02:39:54;;;;;;;;;;;;;;;;;;5080308;28;19908;-25
2022/09/06 02:42:20;;;;;;;;;;;;;;;;;;5080369;28;20315;-25
2022/09/06 02:44:48;;;;;;;;;;;;;;;;;;5079067;28;20062;-25
2022/09/06 02:47:15;;;;;;;;;;;;;;;;;;5079576;28;19965;-25
2022/09/06 02:49:42;;;;;;;;;;;;;;;;;;5081059;28;19966;-25
2022/09/06 02:52:09;;;;;;;;;;;;;;;;;;5080020;28;19908;-25
2022/09/06 02:54:36;;;;;;;;;;;;;;;;;;5080186;28;19938;-25
2022/09/06 02:57:04;;;;;;;;;;;;;;;;;;5080337;28;19913;-25
2022/09/06 02:59:32;;;;;;;;;;;;;;;;;;5080274;28;19913;-25
2022/09/06 03:01:59;;;;;;;;;;;;;;;;;;5080773;28;19912;-25
2022/09/06 03:04:27;;;;;;;;;;;;;;;;;;5078950;28;19909;-25
2022/09/06 03:06:55;;;;;;;;;;;;;;;;;;5080556;28;19965;-25
2022/09/06 03:09:24;;;;;;;;;;;;;;;;;;5079520;28;19908;-25
2022/09/06 03:11:51;;;;;;;;;;;;;;;;;;5080162;28;19912;-25
2022/09/06 03:14:19;;;;;;;;;;;;;;;;;;5079187;28;19936;-25
2022/09/06 03:16:46;;;;;;;;;;;;;;;;;;5080861;28;20007;-24
2022/09/06 03:19:13;;;;;;;;;;;;;;;;;;5079283;28;19909;-23
2022/09/06 03:21:41;;;;;;;;;;;;;;;;;;5079305;28;19927;-23
2022/09/06 03:24:09;;;;;;;;;;;;;;;;;;5079603;28;20303;-23
2022/09/06 03:26:36;;;;;;;;;;;;;;;;;;5079801;28;20301;-23
2022/09/06 03:29:03;;;;;;;;;;;;;;;;;;5079376;28;19920;-23
2022/09/06 03:31:30;;;;;;;;;;;;;;;;;;5078968;28;19912;-23
2022/09/06 03:33:56;;;;;;;;;;;;;;;;;;5079616;28;20003;-24
2022/09/06 03:36:24;;;;;;;;;;;;;;;;;;5079077;28;19928;-23
2022/09/06 03:38:52;;;;;;;;;;;;;;;;;;5078981;28;19956;-23
2022/09/06 03:41:20;;;;;;;;;;;;;;;;;;5078715;28;19963;-23
2022/09/06 03:43:47;;;;;;;;;;;;;;;;;;5079117;28;20018;-23
2022/09/06 03:46:16;;;;;;;;;;;;;;;;;;5078146;28;19931;-23
2022/09/06 03:48:44;;;;;;;;;;;;;;;;;;5079243;28;20003;-24
2022/09/06 03:51:11;;;;;;;;;;;;;;;;;;5077974;28;20302;-24
2022/09/06 03:53:39;;;;;;;;;;;;;;;;;;5079345;28;20398;-24
2022/09/06 03:56:06;;;;;;;;;;;;;;;;;;5079606;28;19973;-24
2022/09/06 03:58:34;;;;;;;;;;;;;;;;;;5079615;28;20338;-25
2022/09/06 04:01:03;;;;;;;;;;;;;;;;;;5078846;28;19912;-23
2022/09/06 04:03:32;;;;;;;;;;;;;;;;;;5076918;28;19919;-24
2022/09/06 04:06:00;;;;;;;;;;;;;;;;;;5078469;28;19921;-24
2022/09/06 04:08:28;;;;;;;;;;;;;;;;;;5078331;28;20406;-24
2022/09/06 04:11:02;;;;;;;;;;;;;;;;;;5078992;28;20370;-24
2022/09/06 04:13:31;;;;;;;;;;;;;;;;;;5078945;28;19919;-24
2022/09/06 04:16:08;;;;;;;;;;;;;;;;;;5078664;28;20264;-24
2022/09/06 04:18:36;;;;;;;;;;;;;;;;;;5078762;28;20379;-24
2022/09/06 04:21:05;;;;;;;;;;;;;;;;;;5077614;28;19924;-25
2022/09/06 04:23:32;;;;;;;;;;;;;;;;;;5077213;28;19955;-24
2022/09/06 04:26:00;;;;;;;;;;;;;;;;;;5077572;28;19916;-24
2022/09/06 04:28:28;;;;;;;;;;;;;;;;;;5077720;28;19951;-24
2022/09/06 04:30:56;;;;;;;;;;;;;;;;;;5059804;28;19917;-25
2022/09/06 04:33:26;;;;;;;;;;;;;;;;;;5059833;28;19924;-24
2022/09/06 04:35:52;;;;;;;;;;;;;;;;;;5077666;28;19912;-23
2022/09/06 04:38:19;;;;;;;;;;;;;;;;;;5077374;28;19913;-24
2022/09/06 04:40:47;;;;;;;;;;;;;;;;;;5077893;28;19990;-25
2022/09/06 04:43:14;;;;;;;;;;;;;;;;;;5077172;28;19919;-24
2022/09/06 04:45:41;;;;;;;;;;;;;;;;;;5077464;28;19908;-24
2022/09/06 04:48:10;;;;;;;;;;;;;;;;;;5077124;28;19970;-24
2022/09/06 04:50:40;;;;;;;;;;;;;;;;;;5059896;28;19950;-24
2022/09/06 04:53:08;;;;;;;;;;;;;;;;;;5076961;28;19912;-24
2022/09/06 04:55:36;;;;;;;;;;;;;;;;;;5059178;28;19934;-24
2022/09/06 04:58:02;;;;;;;;;;;;;;;;;;5076902;28;19947;-25
2022/09/06 05:00:30;;;;;;;;;;;;;;;;;;5059462;28;19909;-24
2022/09/06 05:02:58;;;;;;;;;;;;;;;;;;5058766;28;19913;-24
2022/09/06 05:05:25;;;;;;;;;;;;;;;;;;5058906;28;19915;-24
2022/09/06 05:07:57;;;;;;;;;;;;;;;;;;5076376;28;20254;-24
2022/09/06 05:10:25;;;;;;;;;;;;;;;;;;5059526;28;19955;-24
2022/09/06 05:12:52;;;;;;;;;;;;;;;;;;5076655;28;19965;-24
2022/09/06 05:15:20;;;;;;;;;;;;;;;;;;5076791;28;20298;-22
2022/09/06 05:17:49;;;;;;;;;;;;;;;;;;5076934;28;20367;-23
2022/09/06 05:20:20;;;;;;;;;;;;;;;;;;5077134;28;19913;-24
2022/09/06 05:25:32;;;;;;;;;;;;;;;;;;5058933;28;19981;-24
2022/09/06 05:28:00;;;;;;;;;;;;;;;;;;5056224;28;20008;-24
2022/09/06 05:30:27;;;;;;;;;;;;;;;;;;5039257;28;19909;-24
2022/09/06 05:32:54;;;;;;;;;;;;;;;;;;5038353;28;20296;-24
2022/09/06 05:35:21;;;;;;;;;;;;;;;;;;5038814;28;19919;-24
2022/09/06 05:37:49;;;;;;;;;;;;;;;;;;5056328;28;19978;-24
2022/09/06 05:40:16;;;;;;;;;;;;;;;;;;5055604;28;19913;-24
2022/09/06 05:42:43;;;;;;;;;;;;;;;;;;5055936;28;19913;-24
2022/09/06 05:45:10;;;;;;;;;;;;;;;;;;5056758;28;19919;-24
2022/09/06 05:47:43;;;;;;;;;;;;;;;;;;5038090;28;19913;-24
2022/09/06 05:50:10;;;;;;;;;;;;;;;;;;5055489;28;19913;-24
2022/09/06 05:52:39;;;;;;;;;;;;;;;;;;5037841;28;19920;-24
2022/09/06 05:55:06;;;;;;;;;;;;;;;;;;5055447;28;19951;-24
2022/09/06 05:57:34;;;;;;;;;;;;;;;;;;5055953;28;19971;-24
2022/09/06 06:00:02;;;;;;;;;;;;;;;;;;5047884;28;19927;-24
2022/09/06 06:02:29;;;;;;;;;;;;;;;;;;5038873;28;19936;-24
2022/09/06 06:04:59;;;;;;;;;;;;;;;;;;5056567;28;19913;-24
2022/09/06 06:07:27;;;;;;;;;;;;;;;;;;5056360;28;19917;-23
2022/09/06 06:09:57;;;;;;;;;;;;;;;;;;5056711;28;19908;-24
2022/09/06 06:12:27;;;;;;;;;;;;;;;;;;5055945;28;19912;-24
2022/09/06 06:14:56;;;;;;;;;;;;;;;;;;5056040;28;20365;-24
2022/09/06 06:17:24;;;;;;;;;;;;;;;;;;5055241;28;20347;-24
2022/09/06 06:19:52;;;;;;;;;;;;;;;;;;5037889;28;20257;-24
2022/09/06 06:22:20;;;;;;;;;;;;;;;;;;5055582;28;20000;-23
2022/09/06 06:24:55;;;;;;;;;;;;;;;;;;5055821;28;19932;-25
2022/09/06 06:27:24;;;;;;;;;;;;;;;;;;5057054;28;19916;-25
2022/09/06 06:29:52;;;;;;;;;;;;;;;;;;5039592;28;20292;-24
2022/09/06 06:32:26;;;;;;;;;;;;;;;;;;5037770;28;19970;-25
2022/09/06 06:34:58;;;;;;;;;;;;;;;;;;5055502;28;19917;-25
2022/09/06 06:37:27;;;;;;;;;;;;;;;;;;5038146;28;19916;-24
2022/09/06 06:39:57;;;;;;;;;;;;;;;;;;5055948;28;19913;-25
2022/09/06 06:45:17;;;;;;;;;;;;;;;;;;5059026;28;19928;-25
2022/09/06 06:47:47;;;;;;;;;;;;;;;;;;5042070;28;20013;-25
2022/09/06 06:50:17;;;;;;;;;;;;;;;;;;5061372;28;19964;-25
2022/09/06 06:52:44;;;;;;;;;;;;;;;;;;5059945;28;19912;-24
2022/09/06 06:55:15;;;;;;;;;;;;;;;;;;5060035;28;19939;-25
2022/09/06 06:57:49;;;;;;;;;;;;;;;;;;5058715;28;19999;-25
2022/09/06 07:00:16;;;;;;;;;;;;;;;;;;5059354;28;20103;-25
2022/09/06 07:02:45;;;;;;;;;;;;;;;;;;5059676;28;19924;-25
2022/09/06 07:05:14;;;;;;;;;;;;;;;;;;5042038;28;19923;-25
2022/09/06 07:07:46;;;;;;;;;;;;;;;;;;5042147;28;19912;-25
2022/09/06 07:10:28;;;;;;;;;;;;;;;;;;5042360;28;19913;-25
2022/09/06 07:12:57;;;;;;;;;;;;;;;;;;5060024;28;19916;-25
2022/09/06 07:15:33;;;;;;;;;;;;;;;;;;5060215;28;19944;-25
2022/09/06 07:18:03;;;;;;;;;;;;;;;;;;5042358;28;19944;-23
2022/09/06 07:20:31;;;;;;;;;;;;;;;;;;5060062;28;19959;-22
2022/09/06 07:23:00;;;;;;;;;;;;;;;;;;5059326;28;19908;-24
2022/09/06 07:25:30;;;;;;;;;;;;;;;;;;5079360;28;19920;-25
2022/09/06 07:28:08;;;;;;;;;;;;;;;;;;5080262;28;19956;-25
2022/09/06 07:30:38;;;;;;;;;;;;;;;;;;5079292;28;19958;-25
2022/09/06 07:33:06;;;;;;;;;;;;;;;;;;5079787;28;19912;-22
2022/09/06 07:35:35;;;;;;;;;;;;;;;;;;5078854;28;19909;-24
2022/09/06 07:38:03;;;;;;;;;;;;;;;;;;5079367;28;19982;-25
2022/09/06 07:40:38;;;;;;;;;;;;;;;;;;5079551;28;19912;-24
2022/09/06 07:43:29;;;;;;;;;;;;;;;;;;5077908;28;19919;-25
2022/09/06 07:46:11;;;;;;;;;;;;;;;;;;5078075;28;20334;-24
2022/09/06 07:51:29;;;;;;;;;;;;;;;;;;5078185;28;19926;-24
2022/09/06 07:54:00;;;;;;;;;;;;;;;;;;5077254;28;19934;-24
2022/09/06 07:56:30;;;;;;;;;;;;;;;;;;5077752;28;19916;-23
2022/09/06 07:59:14;;;;;;;;;;;;;;;;;;5079062;28;20270;-24
2022/09/06 08:01:44;;;;;;;;;;;;;;;;;;5079522;28;19977;-23
2022/09/06 08:04:17;;;;;;;;;;;;;;;;;;5078962;28;19916;-24
2022/09/06 08:06:52;;;;;;;;;;;;;;;;;;5077103;28;19917;-23
2022/09/06 08:09:23;;;;;;;;;;;;;;;;;;5078697;28;20369;-23
2022/09/06 08:11:51;;;;;;;;;;;;;;;;;;5077768;28;20007;-23
2022/09/06 08:14:25;;;;;;;;;;;;;;;;;;5078176;28;19947;-23
2022/09/06 08:16:53;;;;;;;;;;;;;;;;;;5076379;28;20102;-23
2022/09/06 08:19:22;;;;;;;;;;;;;;;;;;5076961;28;19908;-23
2022/09/06 08:21:52;;;;;;;;;;;;;;;;;;5076719;28;20046;-23
2022/09/06 08:24:30;;;;;;;;;;;;;;;;;;5078040;28;19924;-23
2022/09/06 08:27:13;;;;;;;;;;;;;;;;;;5077463;28;19913;-23
2022/09/06 08:29:42;;;;;;;;;;;;;;;;;;5061356;28;20355;-23
2022/09/06 08:32:09;;;;;;;;;;;;;;;;;;5060541;28;19965;-23
2022/09/06 08:34:38;;;;;;;;;;;;;;;;;;5078047;28;19934;-23
2022/09/06 08:37:05;;;;;;;;;;;;;;;;;;5059772;28;19927;-23
2022/09/06 08:39:33;;;;;;;;;;;;;;;;;;5077566;28;19909;-23
2022/09/06 08:42:02;;;;;;;;;;;;;;;;;;5060420;28;19917;-23
2022/09/06 08:44:33;;;;;;;;;;;;;;;;;;5077458;28;19965;-23
2022/09/06 08:52:46;;;;;;;;;;;;;;;;;;5077880;28;20345;-23
2022/09/06 08:58:09;;;;;;;;;;;;;;;;;;5078740;28;19927;-23
2022/09/06 09:03:35;;;;;;;;;;;;;;;;;;5077563;28;19923;-24
2022/09/06 09:06:23;;;;;;;;;;;;;;;;;;5077854;28;20255;-23
2022/09/06 09:11:42;;;;;;;;;;;;;;;;;;5078177;28;20320;-24
2022/09/06 09:17:01;;;;;;;;;;;;;;;;;;5077459;28;20061;-23
2022/09/06 09:22:35;;;;;;;;;;;;;;;;;;5077356;28;19947;-24
2022/09/06 09:25:08;;;;;;;;;;;;;;;;;;5069186;28;19931;-24
2022/09/06 09:27:43;;;;;;;;;;;;;;;;;;5079756;28;19912;-23
2022/09/06 09:30:13;;;;;;;;;;;;;;;;;;5079198;28;20231;-23
2022/09/06 09:32:43;;;;;;;;;;;;;;;;;;5078497;28;19951;-24
2022/09/06 09:35:24;;;;;;;;;;;;;;;;;;5077965;28;19913;-22
2022/09/06 09:37:55;;;;;;;;;;;;;;;;;;5078530;28;19912;-24
2022/09/06 09:46:05;;;;;;;;;;;;;;;;;;5077661;28;20365;-23
2022/09/06 09:48:35;;;;;;;;;;;;;;;;;;5076903;28;19923;-23
2022/09/06 09:51:05;;;;;;;;;;;;;;;;;;5078909;28;19938;-24
2022/09/06 09:53:42;;;;;;;;;;;;;;;;;;5077474;28;19936;-22
2022/09/06 09:59:02;;;;;;;;;;;;;;;;;;5078280;28;19916;-24
2022/09/06 10:07:29;;;;;;;;;;;;;;;;;;5078353;28;19923;-24
2022/09/06 10:15:44;;;;;;;;;;;;;;;;;;5078162;28;19974;-23
2022/09/06 10:18:16;;;;;;;;;;;;;;;;;;5077979;28;19951;-23
2022/09/06 10:20:54;;;;;;;;;;;;;;;;;;5081094;28;20387;-23
2022/09/06 10:23:29;;;;;;;;;;;;;;;;;;5079537;28;20019;-23
2022/09/06 10:26:01;;;;;;;;;;;;;;;;;;5080557;28;20274;-23
2022/09/06 10:28:32;;;;;;;;;;;;;;;;;;5079301;28;19947;-24
2022/09/06 10:31:08;;;;;;;;;;;;;;;;;;5072359;28;19912;-23
2022/09/06 10:33:39;;;;;;;;;;;;;;;;;;5079787;28;19965;-23
2022/09/06 10:36:11;;;;;;;;;;;;;;;;;;5080365;28;20003;-23
2022/09/06 10:38:43;;;;;;;;;;;;;;;;;;5080642;28;20250;-23
2022/09/06 10:41:13;;;;;;;;;;;;;;;;;;5080124;28;19913;-23
2022/09/06 10:43:56;;;;;;;;;;;;;;;;;;5076434;28;19913;-24
2022/09/06 10:46:25;;;;;;;;;;;;;;;;;;5074933;28;19937;-23
2022/09/06 10:48:55;;;;;;;;;;;;;;;;;;5079087;28;19912;-23
2022/09/06 10:51:36;;;;;;;;;;;;;;;;;;5080697;28;19996;-24
2022/09/06 10:54:11;;;;;;;;;;;;;;;;;;5062819;28;19913;-23
2022/09/06 10:56:39;;;;;;;;;;;;;;;;;;5079970;28;19974;-23
2022/09/06 10:59:07;;;;;;;;;;;;;;;;;;5071318;28;19915;-24
2022/09/06 11:01:38;;;;;;;;;;;;;;;;;;5080134;28;19939;-25
2022/09/06 11:04:12;;;;;;;;;;;;;;;;;;5080832;28;19944;-25
2022/09/06 11:06:46;;;;;;;;;;;;;;;;;;5080811;28;20338;-25
2022/09/06 11:09:25;;;;;;;;;;;;;;;;;;5072372;28;19917;-25
2022/09/06 11:12:00;;;;;;;;;;;;;;;;;;5080577;28;19909;-25
2022/09/06 11:17:31;;;;;;;;;;;;;;;;;;5079504;28;20383;-25
2022/09/06 11:20:04;;;;;;;;;;;;;;;;;;5078653;28;19913;-25
2022/09/06 11:22:34;;;;;;;;;;;;;;;;;;5075272;28;20267;-25
2022/09/06 11:27:52;;;;;;;;;;;;;;;;;;5080245;28;19923;-25
2022/09/06 11:33:06;;;;;;;;;;;;;;;;;;5493065;22;20055;-21
2022/09/06 11:35:36;;;;;;;;;;;;;;;;;;5059724;28;19924;-20
2022/09/06 11:38:06;;;;;;;;;;;;;;;;;;5059566;28;19913;-19
2022/09/06 11:40:34;;;;;;;;;;;;;;;;;;5041155;28;19913;-20
2022/09/06 11:43:07;;;;;;;;;;;;;;;;;;5059439;28;19999;-21
2022/09/06 11:45:38;;;;;;;;;;;;;;;;;;5041805;28;19999;-21
2022/09/06 11:50:57;;;;;;;;;;;;;;;;;;5059781;28;19987;-21
2022/09/06 11:53:25;;;;;;;;;;;;;;;;;;5059192;28;19913;-21
2022/09/06 11:55:52;;;;;;;;;;;;;;;;;;5059983;28;19960;-21
2022/09/06 11:58:21;;;;;;;;;;;;;;;;;;5058623;28;19923;-20
2022/09/06 12:00:53;;;;;;;;;;;;;;;;;;5059708;28;19936;-20
2022/09/06 12:03:23;;;;;;;;;;;;;;;;;;5059845;28;19940;-19
2022/09/06 12:05:54;;;;;;;;;;;;;;;;;;5042162;28;19995;-20
2022/09/06 12:11:12;;;;;;;;;;;;;;;;;;5059687;28;20305;-20
2022/09/06 12:13:43;;;;;;;;;;;;;;;;;;5059178;28;20344;-19
2022/09/06 12:16:11;;;;;;;;;;;;;;;;;;5058007;28;20359;-20
2022/09/06 12:21:33;;;;;;;;;;;;;;;;;;5059274;28;19920;-19
2022/09/06 12:24:00;;;;;;;;;;;;;;;;;;5058188;28;19985;-19
2022/09/06 12:26:28;;;;;;;;;;;;;;;;;;5058158;28;19917;-19
2022/09/06 12:28:57;;;;;;;;;;;;;;;;;;5057949;28;19936;-19
2022/09/06 12:31:25;;;;;;;;;;;;;;;;;;5058090;28;20339;-19
2022/09/06 12:33:54;;;;;;;;;;;;;;;;;;5027815;28;19928;-19
2022/09/06 12:36:23;;;;;;;;;;;;;;;;;;5037940;28;20017;-18
2022/09/06 12:38:50;;;;;;;;;;;;;;;;;;5038362;28;19913;-20
2022/09/06 12:41:21;;;;;;;;;;;;;;;;;;5036972;28;20393;-19
2022/09/06 12:43:48;;;;;;;;;;;;;;;;;;5020310;28;19913;-19
2022/09/06 12:46:16;;;;;;;;;;;;;;;;;;5037599;28;19909;-19
2022/09/06 12:48:48;;;;;;;;;;;;;;;;;;5038271;28;19913;-19
2022/09/06 12:51:18;;;;;;;;;;;;;;;;;;5037729;28;19917;-19
2022/09/06 12:53:49;;;;;;;;;;;;;;;;;;5037712;28;19928;-19
2022/09/06 12:56:19;;;;;;;;;;;;;;;;;;5037245;28;19928;-19
2022/09/06 12:58:48;;;;;;;;;;;;;;;;;;5019469;28;20343;-19
2022/09/06 13:01:26;;;;;;;;;;;;;;;;;;5037731;28;19993;-19
2022/09/06 13:03:54;;;;;;;;;;;;;;;;;;5038168;28;19913;-19
2022/09/06 13:06:22;;;;;;;;;;;;;;;;;;5019907;28;19920;-19
2022/09/06 13:08:50;;;;;;;;;;;;;;;;;;5038420;28;19909;-19
2022/09/06 13:11:22;;;;;;;;;;;;;;;;;;5019729;28;19992;-19
2022/09/06 13:13:51;;;;;;;;;;;;;;;;;;5037089;28;19913;-19
2022/09/06 13:16:20;;;;;;;;;;;;;;;;;;5036637;28;19920;-19
2022/09/06 13:18:50;;;;;;;;;;;;;;;;;;5036981;28;19927;-19
2022/09/06 13:21:18;;;;;;;;;;;;;;;;;;5019555;28;19996;-19
2022/09/06 13:23:46;;;;;;;;;;;;;;;;;;5036752;28;19909;-20
2022/09/06 13:26:18;;;;;;;;;;;;;;;;;;5037269;28;19913;-19
2022/09/06 13:28:46;;;;;;;;;;;;;;;;;;5037105;28;19909;-26
2022/09/06 13:31:15;;;;;;;;;;;;;;;;;;5036733;28;19967;-20
2022/09/06 13:33:43;;;;;;;;;;;;;;;;;;5057777;28;19924;-19
2022/09/06 13:36:11;;;;;;;;;;;;;;;;;;5058346;28;19912;-20
2022/09/06 13:38:39;;;;;;;;;;;;;;;;;;5058858;28;19935;-20
2022/09/06 13:41:07;;;;;;;;;;;;;;;;;;5076676;28;19924;-19
2022/09/06 13:43:37;;;;;;;;;;;;;;;;;;5058281;28;20242;-20
2022/09/06 13:46:05;;;;;;;;;;;;;;;;;;5077174;28;19912;-19
2022/09/06 13:48:33;;;;;;;;;;;;;;;;;;5076202;28;20346;-20
2022/09/06 13:51:02;;;;;;;;;;;;;;;;;;5058878;28;20253;-20
2022/09/06 13:53:30;;;;;;;;;;;;;;;;;;5077738;28;19912;-20
2022/09/06 13:56:00;;;;;;;;;;;;;;;;;;5062811;28;19923;-20
2022/09/06 13:58:28;;;;;;;;;;;;;;;;;;5080542;28;19972;-20
2022/09/06 14:00:55;;;;;;;;;;;;;;;;;;5080615;28;19923;-19
2022/09/06 14:03:23;;;;;;;;;;;;;;;;;;5080771;28;19913;-20
2022/09/06 14:05:56;;;;;;;;;;;;;;;;;;5080432;28;20438;-20
2022/09/06 14:08:24;;;;;;;;;;;;;;;;;;5080268;28;19913;-20
2022/09/06 14:10:51;;;;;;;;;;;;;;;;;;5080722;28;19915;-20
2022/09/06 14:13:18;;;;;;;;;;;;;;;;;;5080396;28;19920;-20
2022/09/06 14:15:45;;;;;;;;;;;;;;;;;;5080490;28;19940;-19
2022/09/06 14:18:13;;;;;;;;;;;;;;;;;;5062627;28;19982;-19
2022/09/06 14:20:40;;;;;;;;;;;;;;;;;;5080460;28;19913;-20
2022/09/06 14:23:08;;;;;;;;;;;;;;;;;;5079642;28;20404;-19
2022/09/06 14:25:35;;;;;;;;;;;;;;;;;;5062260;28;19974;-19
2022/09/06 14:28:09;;;;;;;;;;;;;;;;;;5080435;28;19912;-20
2022/09/06 14:30:37;;;;;;;;;;;;;;;;;;5080208;28;19912;-20
2022/09/06 14:33:06;;;;;;;;;;;;;;;;;;5062165;28;19983;-20
2022/09/06 14:35:35;;;;;;;;;;;;;;;;;;5062134;28;19965;-20
2022/09/06 14:38:02;;;;;;;;;;;;;;;;;;5061872;28;20305;-18
2022/09/06 14:40:30;;;;;;;;;;;;;;;;;;5080145;28;19913;-19
2022/09/06 14:42:58;;;;;;;;;;;;;;;;;;5079486;28;19912;-18
2022/09/06 14:45:26;;;;;;;;;;;;;;;;;;5080139;28;19932;-19
2022/09/06 14:47:54;;;;;;;;;;;;;;;;;;5079320;28;19965;-19
2022/09/06 14:50:21;;;;;;;;;;;;;;;;;;5061445;28;19913;-20
2022/09/06 14:52:48;;;;;;;;;;;;;;;;;;5079027;28;19940;-20
2022/09/06 14:55:16;;;;;;;;;;;;;;;;;;5079345;28;19913;-20
2022/09/06 14:57:44;;;;;;;;;;;;;;;;;;5061688;28;19960;-20
2022/09/06 15:00:11;;;;;;;;;;;;;;;;;;5080063;28;19930;-20
2022/09/06 15:02:41;;;;;;;;;;;;;;;;;;5079756;28;20408;-20
2022/09/06 15:05:10;;;;;;;;;;;;;;;;;;5077994;28;19908;-19
2022/09/06 15:07:37;;;;;;;;;;;;;;;;;;5060904;28;19913;-19
2022/09/06 15:10:05;;;;;;;;;;;;;;;;;;5061103;28;19908;-20
2022/09/06 15:12:32;;;;;;;;;;;;;;;;;;5060749;28;19963;-19
2022/09/06 15:14:58;;;;;;;;;;;;;;;;;;5060834;28;20052;-20
2022/09/06 15:17:26;;;;;;;;;;;;;;;;;;5060997;28;19920;-19
2022/09/06 15:19:53;;;;;;;;;;;;;;;;;;5078776;28;19966;-20
2022/09/06 15:22:20;;;;;;;;;;;;;;;;;;5060943;28;19912;-20
2022/09/06 15:24:49;;;;;;;;;;;;;;;;;;5078833;28;19908;-20
2022/09/06 15:27:16;;;;;;;;;;;;;;;;;;5079002;28;20342;-19
2022/09/06 15:29:43;;;;;;;;;;;;;;;;;;5061048;28;20041;-20
2022/09/06 15:32:11;;;;;;;;;;;;;;;;;;5078598;28;20373;-20
2022/09/06 15:34:39;;;;;;;;;;;;;;;;;;5060292;28;19920;-19
2022/09/06 15:37:09;;;;;;;;;;;;;;;;;;5078055;28;19946;-20
2022/09/06 15:39:36;;;;;;;;;;;;;;;;;;5078692;28;20243;-20
2022/09/06 15:42:04;;;;;;;;;;;;;;;;;;5060714;28;20630;-19
2022/09/06 15:44:32;;;;;;;;;;;;;;;;;;5061715;28;19924;-19
2022/09/06 15:46:59;;;;;;;;;;;;;;;;;;5078412;28;19908;-19
2022/09/06 15:49:27;;;;;;;;;;;;;;;;;;5078257;28;19917;-20
2022/09/06 15:51:54;;;;;;;;;;;;;;;;;;5078587;28;20293;-19
2022/09/06 15:55:54;;;;;;;;;;;;;;;;;;5077904;28;19916;-19
2022/09/06 15:57:09;;;;;;;;;;;;;;;;;;5077406;28;19916;-19
2022/09/06 15:59:36;;;;;;;;;;;;;;;;;;5060733;28;19909;-20
2022/09/06 16:02:02;;;;;;;;;;;;;;;;;;5060571;28;20026;-20
2022/09/06 16:04:29;;;;;;;;;;;;;;;;;;5060809;28;19913;-20
2022/09/06 16:06:56;;;;;;;;;;;;;;;;;;5077970;28;19996;-20
2022/09/06 16:09:24;;;;;;;;;;;;;;;;;;5078473;28;19952;-20
2022/09/06 16:11:51;;;;;;;;;;;;;;;;;;5060441;28;19912;-25
2022/09/06 16:14:18;;;;;;;;;;;;;;;;;;5077760;28;19958;-20
2022/09/06 16:16:44;;;;;;;;;;;;;;;;;;5077376;28;19916;-19
2022/09/06 16:19:12;;;;;;;;;;;;;;;;;;5060227;28;19970;-19
2022/09/06 16:21:38;;;;;;;;;;;;;;;;;;5077784;28;20336;-19
2022/09/06 16:24:05;;;;;;;;;;;;;;;;;;5077843;28;19909;-20
2022/09/06 16:26:32;;;;;;;;;;;;;;;;;;5078378;28;19928;-19
2022/09/06 16:29:00;;;;;;;;;;;;;;;;;;5060807;28;19913;-19
2022/09/06 16:31:27;;;;;;;;;;;;;;;;;;5077970;28;19912;-19
2022/09/06 16:33:55;;;;;;;;;;;;;;;;;;5077180;28;19924;-20
2022/09/06 16:36:22;;;;;;;;;;;;;;;;;;5077261;28;19912;-20
2022/09/06 16:38:49;;;;;;;;;;;;;;;;;;5078188;28;20341;-19
2022/09/06 16:41:16;;;;;;;;;;;;;;;;;;5077219;28;20355;-19
2022/09/06 16:43:44;;;;;;;;;;;;;;;;;;5077185;28;19908;-19
2022/09/06 16:46:10;;;;;;;;;;;;;;;;;;5077977;28;19913;-20
2022/09/06 16:48:39;;;;;;;;;;;;;;;;;;5077429;28;19909;-20
2022/09/06 16:51:06;;;;;;;;;;;;;;;;;;5077751;28;19924;-18
2022/09/06 16:53:33;;;;;;;;;;;;;;;;;;5076946;28;19974;-19
2022/09/06 16:56:01;;;;;;;;;;;;;;;;;;5076803;28;20346;-19
2022/09/06 16:58:28;;;;;;;;;;;;;;;;;;5076737;28;20361;-19
2022/09/06 17:00:56;;;;;;;;;;;;;;;;;;5076855;28;20274;-19
2022/09/06 17:03:23;;;;;;;;;;;;;;;;;;5076785;28;19951;-19
2022/09/06 17:05:50;;;;;;;;;;;;;;;;;;5077400;28;19908;-19
2022/09/06 17:08:18;;;;;;;;;;;;;;;;;;5059358;28;20250;-19
2022/09/06 17:10:45;;;;;;;;;;;;;;;;;;5076791;28;19920;-20
2022/09/06 17:13:12;;;;;;;;;;;;;;;;;;5076838;28;19912;-20
2022/09/06 17:18:25;;;;;;;;;;;;;;;;;;5077434;28;19927;-18
2022/09/06 17:20:52;;;;;;;;;;;;;;;;;;5076603;28;19909;-19
2022/09/06 17:23:19;;;;;;;;;;;;;;;;;;5076857;28;20302;-19
2022/09/06 17:25:48;;;;;;;;;;;;;;;;;;5076738;28;19912;-19
2022/09/06 17:28:15;;;;;;;;;;;;;;;;;;5075741;28;19921;-19
2022/09/06 17:30:42;;;;;;;;;;;;;;;;;;5076957;28;19909;-19
2022/09/06 17:33:09;;;;;;;;;;;;;;;;;;5076733;28;19943;-18
2022/09/06 17:35:36;;;;;;;;;;;;;;;;;;5076752;28;19951;-19
2022/09/06 17:38:03;;;;;;;;;;;;;;;;;;5076559;28;20301;-19
2022/09/06 17:40:30;;;;;;;;;;;;;;;;;;5059419;28;19920;-18
2022/09/06 17:42:57;;;;;;;;;;;;;;;;;;5076735;28;19930;-19
2022/09/06 17:45:24;;;;;;;;;;;;;;;;;;5059008;28;20338;-20
2022/09/06 17:47:51;;;;;;;;;;;;;;;;;;5076475;28;19912;-19
2022/09/06 17:50:19;;;;;;;;;;;;;;;;;;5076781;28;19999;-20
2022/09/06 17:52:47;;;;;;;;;;;;;;;;;;5077133;28;19917;-19
2022/09/06 17:55:14;;;;;;;;;;;;;;;;;;5058434;28;19923;-19
2022/09/06 17:57:41;;;;;;;;;;;;;;;;;;5058518;28;19923;-19
2022/09/06 18:00:09;;;;;;;;;;;;;;;;;;5058570;28;20007;-19
2022/09/06 18:02:37;;;;;;;;;;;;;;;;;;5075649;28;19916;-19
2022/09/06 18:05:06;;;;;;;;;;;;;;;;;;5075856;28;20403;-18